Time;durP1;ratioP1;P1;durP2;ratioP2;P2;SDS_P1;SDS_P2;PMS_P1;PMS_P2;Temp;Humidity;BMP_temperature;BMP_pressure;BME280_temperature;BME280_humidity;BME280_pressure;Samples;Min_cycle;Max_cycle;Signal;HPM_P1;HPM_P2
2021/08/12 00:01:59;;;;;;;10.38;7.15;;;;;;;;;;3542447;40;20062;-60
2021/08/12 00:04:25;;;;;;;12.93;6.50;;;;;;;;;;3542076;40;20057;-60
2021/08/12 00:06:51;;;;;;;11.32;7.05;;;;;;;;;;3542586;40;20120;-60
2021/08/12 00:09:17;;;;;;;14.88;6.80;;;;;;;;;;3541278;40;20646;-60
2021/08/12 00:11:43;;;;;;;8.05;6.18;;;;;;;;;;3542365;40;20866;-60
2021/08/12 00:14:09;;;;;;;8.70;6.13;;;;;;;;;;3542842;40;20038;-60
2021/08/12 00:16:35;;;;;;;11.05;6.40;;;;;;;;;;3542523;40;20047;-60
2021/08/12 00:19:01;;;;;;;10.00;6.80;;;;;;;;;;3542474;40;20030;-60
2021/08/12 00:21:27;;;;;;;14.18;9.15;;;;;;;;;;3542588;40;20305;-60
2021/08/12 00:23:53;;;;;;;15.82;10.10;;;;;;;;;;3541046;40;20380;-60
2021/08/12 00:26:19;;;;;;;16.55;10.88;;;;;;;;;;3542373;40;20026;-61
2021/08/12 00:28:45;;;;;;;15.77;11.05;;;;;;;;;;3549315;40;20115;-60
2021/08/12 00:31:11;;;;;;;17.42;10.48;;;;;;;;;;3542956;40;20043;-61
2021/08/12 00:33:39;;;;;;;15.32;10.20;;;;;;;;;;3540860;40;20062;-60
2021/08/12 00:36:05;;;;;;;14.70;10.18;;;;;;;;;;3549513;40;20031;-60
2021/08/12 00:38:32;;;;;;;14.70;9.60;;;;;;;;;;3549919;40;20114;-60
2021/08/12 00:40:58;;;;;;;16.20;7.97;;;;;;;;;;3548822;40;20078;-60
2021/08/12 00:43:26;;;;;;;14.77;7.80;;;;;;;;;;3549714;40;20067;-60
2021/08/12 00:45:53;;;;;;;11.88;8.73;;;;;;;;;;3549200;40;20078;-60
2021/08/12 00:48:19;;;;;;;14.15;9.40;;;;;;;;;;3547361;40;20027;-60
2021/08/12 00:50:46;;;;;;;13.93;9.73;;;;;;;;;;3540955;40;20033;-60
2021/08/12 00:53:12;;;;;;;16.63;10.23;;;;;;;;;;3540741;40;20602;-60
2021/08/12 00:55:42;;;;;;;15.43;11.05;;;;;;;;;;3549095;40;20641;-60
2021/08/12 00:58:09;;;;;;;15.52;10.10;;;14.60;99.90;;;;;;3549369;40;20606;-60
2021/08/12 01:00:35;;;;;;;12.50;9.23;;;;;;;;;;3540057;40;20034;-60
2021/08/12 01:03:03;;;;;;;13.60;8.90;;;;;;;;;;3540747;40;20046;-60
2021/08/12 01:05:31;;;;;;;19.88;10.00;;;;;;;;;;3548883;40;20031;-60
2021/08/12 01:07:57;;;;;;;14.55;9.55;;;;;;;;;;3549270;40;20041;-60
2021/08/12 01:10:23;;;;;;;13.23;8.57;;;;;;;;;;3548950;40;20692;-60
2021/08/12 01:12:50;;;;;;;10.27;7.45;;;;;;;;;;3548913;40;20054;-60
2021/08/12 01:15:16;;;;;;;10.02;6.72;;;;;;;;;;3540956;40;20053;-60
2021/08/12 01:17:43;;;;;;;15.00;7.13;;;;;;;;;;3540525;40;20042;-60
2021/08/12 01:20:09;;;;;;;11.13;7.07;;;;;;;;;;3540962;40;20069;-60
2021/08/12 01:22:35;;;;;;;9.70;6.75;;;;;;;;;;3533613;40;20030;-60
2021/08/12 01:25:01;;;;;;;18.00;9.40;;;14.10;99.90;;;;;;3542027;40;20034;-60
2021/08/12 01:27:27;;;;;;;13.75;9.35;;;;;;;;;;3549805;40;20034;-60
2021/08/12 01:29:54;;;;;;;15.63;8.85;;;;;;;;;;3541945;40;20049;-60
2021/08/12 01:32:20;;;;;;;12.60;9.32;;;;;;;;;;3541812;40;20035;-60
2021/08/12 01:34:46;;;;;;;16.45;9.80;;;;;;;;;;3548735;40;20046;-66
2021/08/12 01:37:13;;;;;;;16.05;10.65;;;;;;;;;;3548754;40;20491;-67
2021/08/12 01:39:39;;;;;;;15.55;11.23;;;;;;;;;;3540607;40;20094;-66
2021/08/12 01:42:05;;;;;;;16.13;10.57;;;;;;;;;;3548422;40;20053;-67
2021/08/12 01:44:32;;;;;;;13.45;9.05;;;;;;;;;;3549323;40;20040;-67
2021/08/12 01:47:02;;;;;;;11.57;7.40;;;;;;;;;;3540620;40;20058;-67
2021/08/12 01:49:29;;;;;;;12.82;7.22;;;;;;;;;;3540455;40;20075;-67
2021/08/12 01:51:55;;;;;;;10.98;6.75;;;;;;;;;;3549087;40;20070;-67
2021/08/12 01:54:22;;;;;;;9.20;6.72;;;;;;;;;;3548720;40;20124;-66
2021/08/12 01:56:53;;;;;;;8.02;6.28;;;;;;;;;;3549413;40;20057;-67
2021/08/12 01:59:19;;;;;;;8.55;5.78;;;;;;;;;;3541079;40;20050;-67
2021/08/12 02:01:47;;;;;;;9.20;6.72;;;;;;;;;;3540109;40;20132;-67
2021/08/12 02:04:13;;;;;;;12.52;6.60;;;;;;;;;;3542301;40;20030;-67
2021/08/12 02:06:39;;;;;;;10.98;6.40;;;;;;;;;;3540673;40;20031;-67
2021/08/12 02:09:05;;;;;;;11.68;6.82;;;;;;;;;;3548948;40;20042;-67
2021/08/12 02:11:33;;;;;;;11.30;6.88;;;;;;;;;;3539688;40;20030;-67
2021/08/12 02:14:00;;;;;;;12.73;6.80;;;;;;;;;;3540725;40;20034;-66
2021/08/12 02:16:27;;;;;;;9.35;6.65;;;;;;;;;;3540402;40;20030;-66
2021/08/12 02:18:53;;;;;;;13.38;7.18;;;;;;;;;;3537200;40;20949;-67
2021/08/12 02:21:19;;;;;;;11.07;6.82;;;;;;;;;;3548924;40;20042;-66
2021/08/12 02:23:45;;;;;;;11.13;6.95;;;;;;;;;;3548492;40;20046;-67
2021/08/12 02:26:11;;;;;;;12.23;7.07;;;;;;;;;;3540314;40;20730;-67
2021/08/12 02:28:39;;;;;;;9.15;6.75;;;;;;;;;;3548764;40;20039;-68
2021/08/12 02:31:05;;;;;;;8.85;6.80;;;;;;;;;;3536929;40;20042;-67
2021/08/12 02:33:32;;;;;;;14.55;7.18;;;;;;;;;;3533287;40;20384;-67
2021/08/12 02:35:58;;;;;;;12.13;7.25;;;;;;;;;;3541834;40;20037;-67
2021/08/12 02:38:24;;;;;;;10.48;7.30;;;;;;;;;;3541197;40;20038;-67
2021/08/12 02:40:50;;;;;;;14.95;7.32;;;;;;;;;;3548237;40;20042;-67
2021/08/12 02:43:16;;;;;;;15.00;6.75;;;;;;;;;;3539527;40;20039;-67
2021/08/12 02:45:42;;;;;;;17.23;7.07;;;;;;;;;;3541411;40;20132;-66
2021/08/12 02:48:08;;;;;;;11.70;7.00;;;;;;;;;;3541892;40;20022;-67
2021/08/12 02:50:35;;;;;;;10.30;6.57;;;;;;;;;;3539860;40;20038;-67
2021/08/12 02:53:01;;;;;;;17.25;8.30;;;12.60;99.90;;;;;;3540335;40;20116;-66
2021/08/12 02:55:27;;;;;;;12.48;6.47;;;;;;;;;;3539982;40;20034;-67
2021/08/12 02:57:53;;;;;;;14.70;6.82;;;12.70;99.90;;;;;;3548631;40;20037;-67
2021/08/12 03:00:21;;;;;;;12.13;6.82;;;;;;;;;;3541536;40;20046;-67
2021/08/12 03:02:47;;;;;;;10.77;6.72;;;;;;;;;;3540921;40;20027;-67
2021/08/12 03:05:15;;;;;;;9.40;7.28;;;;;;;;;;3548694;40;20042;-67
2021/08/12 03:07:41;;;;;;;12.50;7.63;;;;;;;;;;3548157;40;20031;-66
2021/08/12 03:10:07;;;;;;;11.85;7.93;;;;;;;;;;3539381;40;20087;-66
2021/08/12 03:12:33;;;;;;;12.13;7.43;;;;;;;;;;3548114;40;20034;-66
2021/08/12 03:14:59;;;;;;;11.65;7.28;;;;;;;;;;3540893;40;20030;-66
2021/08/12 03:17:25;;;;;;;11.57;7.40;;;;;;;;;;3548121;40;20033;-67
2021/08/12 03:19:51;;;;;;;10.98;7.60;;;;;;;;;;3540778;40;20379;-66
2021/08/12 03:22:17;;;;;;;11.43;8.10;;;;;;;;;;3541073;40;20415;-66
2021/08/12 03:24:44;;;;;;;15.73;7.82;;;;;;;;;;3541122;40;20042;-66
2021/08/12 03:27:13;;;;;;;12.35;8.07;;;;;;;;;;3541509;40;20034;-66
2021/08/12 03:29:39;;;;;;;18.35;9.40;;;;;;;;;;3541969;40;20041;-66
2021/08/12 03:32:05;;;;;;;14.10;9.98;;;;;;;;;;3549411;40;20023;-66
2021/08/12 03:34:31;;;;;;;13.10;8.80;;;;;;;;;;3550064;40;20046;-66
2021/08/12 03:36:57;;;;;;;14.90;9.30;;;;;;;;;;3541682;40;20042;-66
2021/08/12 03:39:23;;;;;;;12.73;8.25;;;;;;;;;;3549267;40;20312;-67
2021/08/12 03:41:51;;;;;;;11.10;8.45;;;;;;;;;;3549848;40;20034;-66
2021/08/12 03:44:17;;;;;;;13.25;7.88;;;;;;;;;;3541572;40;20058;-66
2021/08/12 03:46:43;;;;;;;13.43;8.75;;;;;;;;;;3542908;40;20608;-66
2021/08/12 03:49:09;;;;;;;14.77;8.70;;;;;;;;;;3541855;40;20034;-66
2021/08/12 03:51:35;;;;;;;9.88;7.80;;;;;;;;;;3541424;40;20038;-66
2021/08/12 03:54:02;;;;;;;9.20;7.57;;;;;;;;;;3541090;40;20073;-67
2021/08/12 03:56:28;;;;;;;12.57;7.70;;;;;;;;;;3541283;40;20049;-65
2021/08/12 03:58:54;;;;;;;13.48;7.70;;;;;;;;;;3541547;40;20328;-66
2021/08/12 04:01:21;;;;;;;12.15;7.18;;;;;;;;;;3549456;40;20070;-65
2021/08/12 04:03:49;;;;;;;16.60;7.20;;;;;;;;;;3541134;40;20031;-66
2021/08/12 04:06:15;;;;;;;15.60;7.70;;;;;;;;;;3542634;40;20030;-67
2021/08/12 04:08:41;;;;;;;10.35;8.07;;;;;;;;;;3548050;40;20026;-67
2021/08/12 04:11:07;;;;;;;9.90;7.30;;;;;;;;;;3542231;40;20034;-66
2021/08/12 04:13:33;;;;;;;14.10;7.60;;;;;;;;;;3542416;40;20026;-66
2021/08/12 04:15:59;;;;;;;10.95;7.53;;;;;;;;;;3540985;40;20035;-65
2021/08/12 04:18:25;;;;;;;13.18;7.85;;;;;;;;;;3541371;40;20039;-66
2021/08/12 04:20:52;;;;;;;10.63;7.50;;;;;;;;;;3549530;40;20019;-65
2021/08/12 04:23:18;;;;;;;13.27;7.50;;;;;;;;;;3535182;40;20125;-66
2021/08/12 04:25:45;;;;;;;9.93;7.55;;;;;;;;;;3543586;40;20041;-67
2021/08/12 04:28:11;;;;;;;14.85;7.97;;;;;;;;;;3540060;40;20042;-66
2021/08/12 04:30:38;;;;;;;10.43;7.38;;;;;;;;;;3549399;40;20665;-66
2021/08/12 04:33:05;;;;;;;11.10;7.50;;;;;;;;;;3542059;40;20089;-67
2021/08/12 04:35:31;;;;;;;12.23;8.20;;;;;;;;;;3540744;40;20383;-67
2021/08/12 04:37:57;;;;;;;11.23;8.43;;;;;;;;;;3532694;40;20030;-66
2021/08/12 04:40:25;;;;;;;9.65;7.63;;;;;;;;;;3548711;40;20160;-66
2021/08/12 04:42:53;;;;;;;10.27;7.90;;;;;;;;;;3541395;40;20053;-66
2021/08/12 04:45:20;;;;;;;11.60;7.00;;;;;;;;;;3535338;40;20089;-67
2021/08/12 04:47:46;;;;;;;16.13;7.43;;;;;;;;;;3538701;40;20044;-66
2021/08/12 04:50:12;;;;;;;12.65;7.57;;;13.70;99.90;;;;;;3549066;40;20030;-67
2021/08/12 04:52:41;;;;;;;18.88;7.82;;;;;;;;;;3540207;40;20078;-67
2021/08/12 04:55:07;;;;;;;11.55;7.50;;;;;;;;;;3540291;40;20042;-67
2021/08/12 04:57:33;;;;;;;15.38;8.50;;;;;;;;;;3541065;40;20042;-66
2021/08/12 04:59:59;;;;;;;13.23;9.20;;;;;;;;;;3541585;40;20132;-66
2021/08/12 05:02:26;;;;;;;17.40;10.35;;;;;;;;;;3541643;40;20082;-67
2021/08/12 05:04:52;;;;;;;19.92;11.40;;;;;;;;;;3540530;40;20053;-67
2021/08/12 05:07:19;;;;;;;14.32;10.18;;;;;;;;;;3541538;40;20037;-67
2021/08/12 05:09:46;;;;;;;15.18;10.63;;;;;;;;;;3548088;40;20033;-65
2021/08/12 05:12:12;;;;;;;18.40;12.38;;;;;;;;;;3541561;40;20042;-67
2021/08/12 05:14:38;;;;;;;17.70;12.68;;;;;;;;;;3548075;40;20038;-67
2021/08/12 05:17:04;;;;;;;19.75;12.57;;;;;;;;;;3548851;40;20034;-66
2021/08/12 05:19:31;;;;;;;17.58;12.32;;;;;;;;;;3548610;40;20035;-67
2021/08/12 05:21:57;;;;;;;17.25;12.07;;;;;;;;;;3548106;40;20128;-66
2021/08/12 05:24:24;;;;;;;17.10;12.52;;;;;;;;;;3548657;40;20030;-66
2021/08/12 05:26:52;;;;;;;16.52;11.68;;;;;;;;;;3534895;40;20054;-67
2021/08/12 05:29:18;;;;;;;15.70;11.15;;;;;;;;;;3548131;40;20877;-67
2021/08/12 05:31:45;;;;;;;18.25;11.48;;;;;;;;;;3549050;40;20027;-67
2021/08/12 05:34:11;;;;;;;15.85;11.63;;;;;;;;;;3548139;40;20053;-67
2021/08/12 05:36:37;;;;;;;15.82;10.48;;;;;;;;;;3541739;40;20089;-67
2021/08/12 05:39:03;;;;;;;26.52;11.52;;;;;;;;;;3548868;40;20030;-67
2021/08/12 05:41:31;;;;;;;17.48;11.38;;;;;;;;;;3542284;40;20480;-67
2021/08/12 05:43:59;;;;;;;17.60;11.27;;;15.30;99.90;;;;;;3540811;40;20042;-66
2021/08/12 05:46:24;;;;;;;18.52;11.48;;;15.00;99.90;;;;;;3548758;40;20390;-67
2021/08/12 05:48:50;;;;;;;18.67;10.98;;;;;;;;;;3540599;40;20022;-67
2021/08/12 05:51:16;;;;;;;15.32;10.25;;;;;;;;;;3541486;40;20037;-66
2021/08/12 05:53:42;;;;;;;14.23;9.40;;;;;;;;;;3548849;40;20035;-66
2021/08/12 05:56:08;;;;;;;13.48;9.70;;;;;;;;;;3542071;40;20918;-67
2021/08/12 05:58:38;;;;;;;16.08;9.30;;;;;;;;;;3548542;40;20038;-67
2021/08/12 06:01:06;;;;;;;15.38;8.75;;;;;;;;;;3539883;40;20062;-67
2021/08/12 06:03:32;;;;;;;14.85;8.52;;;;;;;;;;3540289;40;20038;-67
2021/08/12 06:05:59;;;;;;;13.70;9.18;;;16.90;99.90;;;;;;3539105;40;20046;-67
2021/08/12 06:08:25;;;;;;;13.27;8.57;;;;;;;;;;3548197;40;20046;-67
2021/08/12 06:10:52;;;;;;;11.57;8.52;;;;;;;;;;3539021;40;20042;-67
2021/08/12 06:13:18;;;;;;;14.02;10.25;;;;;;;;;;3541915;40;20026;-67
2021/08/12 06:15:44;;;;;;;38.08;18.95;;;;;;;;;;3539129;40;20225;-67
2021/08/12 06:18:11;;;;;;;21.85;13.13;;;;;;;;;;3548443;40;20046;-68
2021/08/12 06:20:38;;;;;;;11.65;8.05;;;;;;;;;;3533255;40;20042;-66
2021/08/12 06:23:08;;;;;;;12.02;7.75;;;;;;;;;;3540014;40;20042;-67
2021/08/12 06:25:35;;;;;;;10.60;7.47;;;;;;;;;;3547872;40;20146;-67
2021/08/12 06:28:01;;;;;;;11.85;6.95;;;;;;;;;;3548356;40;20139;-69
2021/08/12 06:30:28;;;;;;;11.43;8.07;;;;;;;;;;3541284;40;20042;-67
2021/08/12 06:32:54;;;;;;;9.73;6.53;;;17.50;99.90;;;;;;3537316;40;20469;-67
2021/08/12 06:35:20;;;;;;;11.40;7.47;;;;;;;;;;3547665;40;20042;-68
2021/08/12 06:37:50;;;;;;;8.57;6.18;;;;;;;;;;3549015;40;20039;-67
2021/08/12 06:40:16;;;;;;;9.95;6.40;;;;;;;;;;3548141;40;20045;-67
2021/08/12 06:42:42;;;;;;;10.07;5.72;;;;;;;;;;3538739;40;20336;-67
2021/08/12 06:45:10;;;;;;;13.60;7.20;;;;;;;;;;3540214;40;20042;-68
2021/08/12 06:47:37;;;;;;;9.10;6.47;;;;;;;;;;3541034;40;20042;-68
2021/08/12 06:50:05;;;;;;;7.07;5.50;;;;;;;;;;3547964;40;20026;-67
2021/08/12 06:52:31;;;;;;;6.32;5.40;;;;;;;;;;3541578;40;20125;-68
2021/08/12 06:54:58;;;;;;;10.88;5.55;;;;;;;;;;3540029;40;20046;-68
2021/08/12 06:57:24;;;;;;;12.18;8.55;;;;;;;;;;3548116;40;20038;-67
2021/08/12 06:59:49;;;;;;;12.10;5.80;;;;;;;;;;3539006;40;20030;-67
2021/08/12 07:02:17;;;;;;;8.55;5.95;;;;;;;;;;3536004;40;20151;-67
2021/08/12 07:04:44;;;;;;;7.50;4.90;;;;;;;;;;3547575;40;20741;-67
2021/08/12 07:07:10;;;;;;;8.80;4.05;;;;;;;;;;3548316;40;20045;-67
2021/08/12 07:09:37;;;;;;;9.43;5.53;;;;;;;;;;3538504;40;20034;-67
2021/08/12 07:12:03;;;;;;;5.50;3.95;;;;;;;;;;3539609;40;20038;-69
2021/08/12 07:14:32;;;;;;;5.82;3.55;;;;;;;;;;3548445;40;20132;-67
2021/08/12 07:16:58;;;;;;;9.13;5.05;;;;;;;;;;3547981;40;20038;-67
2021/08/12 07:19:25;;;;;;;10.63;4.25;;;;;;;;;;3540343;40;20037;-67
2021/08/12 07:21:54;;;;;;;5.30;2.95;;;;;;;;;;3536761;40;20038;-67
2021/08/12 07:24:20;;;;;;;5.88;3.70;;;;;;;;;;3541064;40;20050;-67
2021/08/12 07:26:47;;;;;;;5.43;3.53;;;;;;;;;;3540053;40;20597;-67
2021/08/12 07:29:13;;;;;;;7.88;3.70;;;19.70;99.90;;;;;;3540961;40;20049;-67
2021/08/12 07:31:39;;;;;;;8.73;3.20;;;;;;;;;;3532862;40;20373;-67
2021/08/12 07:34:04;;;;;;;5.13;3.42;;;;;;;;;;3540187;40;20054;-67
2021/08/12 07:36:33;;;;;;;5.80;3.45;;;;;;;;;;3539356;40;20045;-67
2021/08/12 07:38:59;;;;;;;5.75;3.15;;;;;;;;;;3536164;40;20095;-67
2021/08/12 07:41:25;;;;;;;9.93;6.22;;;;;;;;;;3547860;40;20388;-67
2021/08/12 07:43:51;;;;;;;15.52;9.02;;;;;;;;;;3541112;40;20045;-66
2021/08/12 07:46:17;;;;;;;4.78;3.10;;;;;;;;;;3539833;40;20047;-67
2021/08/12 07:48:43;;;;;;;6.35;3.00;;;;;;;;;;3536425;40;20389;-67
2021/08/12 07:51:09;;;;;;;14.30;7.72;;;;;;;;;;3541142;40;20097;-67
2021/08/12 07:53:35;;;;;;;6.10;2.90;;;;;;;;;;3540812;40;20034;-67
2021/08/12 07:56:01;;;;;;;16.25;8.70;;;;;;;;;;3541229;40;20034;-67
2021/08/12 07:58:27;;;;;;;6.70;3.80;;;;;;;;;;3540779;40;20508;-67
2021/08/12 08:00:53;;;;;;;6.32;3.13;;;;;;;;;;3540571;40;20030;-67
2021/08/12 08:03:19;;;;;;;3.78;2.70;;;;;;;;;;3541199;40;20029;-67
2021/08/12 08:05:45;;;;;;;12.02;6.80;;;;;;;;;;3539560;40;20030;-67
2021/08/12 08:08:11;;;;;;;14.60;8.05;;;;;;;;;;3541230;40;20053;-67
2021/08/12 08:10:37;;;;;;;8.38;4.03;;;;;;;;;;3541746;40;20042;-67
2021/08/12 08:13:03;;;;;;;4.78;3.03;;;;;;;;;;3542313;40;20716;-67
2021/08/12 08:15:29;;;;;;;6.10;3.42;;;;;;;;;;3542708;40;20031;-67
2021/08/12 08:17:55;;;;;;;4.32;2.70;;;;;;;;;;3542371;40;20038;-67
2021/08/12 08:20:21;;;;;;;3.80;2.72;;;;;;;;;;3542165;40;20109;-67
2021/08/12 08:22:47;;;;;;;3.33;2.50;;;;;;;;;;3542405;40;20768;-66
2021/08/12 08:25:13;;;;;;;3.35;2.30;;;;;;;;;;3542180;40;20034;-67
2021/08/12 08:27:39;;;;;;;5.07;2.53;;;;;;;;;;3542944;40;20121;-66
2021/08/12 08:30:05;;;;;;;5.15;3.05;;;;;;;;;;3542094;40;20046;-67
2021/08/12 08:32:34;;;;;;;3.65;2.60;;;;;;;;;;3542244;40;20519;-66
2021/08/12 08:35:00;;;;;;;6.60;2.90;;;;;;;;;;3540544;40;20049;-66
2021/08/12 08:37:26;;;;;;;4.93;2.20;;;;;;;;;;3541932;40;20054;-66
2021/08/12 08:39:53;;;;;;;4.07;2.83;;;;;;;;;;3542214;40;20436;-66
2021/08/12 08:42:20;;;;;;;3.63;2.47;;;;;;;;;;3541476;40;20405;-68
2021/08/12 08:44:46;;;;;;;5.18;2.50;;;;;;;;;;3540156;40;20045;-66
2021/08/12 08:47:12;;;;;;;4.57;2.33;;;;;;;;;;3548594;40;20410;-66
2021/08/12 08:49:38;;;;;;;5.05;2.60;;;;;;;;;;3541564;40;20410;-66
2021/08/12 08:52:04;;;;;;;5.30;2.80;;;;;;;;;;3533264;40;20030;-66
2021/08/12 08:54:30;;;;;;;6.57;2.80;;;;;;;;;;3542131;40;20038;-67
2021/08/12 08:56:56;;;;;;;5.07;2.38;;;;;;;;;;3541338;40;20056;-66
2021/08/12 08:59:23;;;;;;;5.03;2.50;;;;;;;;;;3542313;40;20027;-67
2021/08/12 09:01:49;;;;;;;6.78;2.75;;;;;;;;;;3541991;40;20042;-66
2021/08/12 09:04:15;;;;;;;8.05;3.63;;;;;;;;;;3541825;40;20312;-66
2021/08/12 09:06:41;;;;;;;5.15;2.60;;;;;;;;;;3541458;40;20041;-67
2021/08/12 09:09:08;;;;;;;4.10;2.78;;;;;;;;;;3548035;40;20054;-66
2021/08/12 09:11:34;;;;;;;12.48;6.03;;;;;;;;;;3541098;40;20058;-66
2021/08/12 09:14:00;;;;;;;48.45;24.85;;;;;;;;;;3542079;40;20336;-68
2021/08/12 09:16:26;;;;;;;3.70;2.58;;;;;;;;;;3542122;40;20053;-66
2021/08/12 09:18:52;;;;;;;10.30;3.25;;;;;;;;;;3541263;40;20120;-67
2021/08/12 09:21:18;;;;;;;4.22;2.38;;;;;;;;;;3540642;40;20096;-66
2021/08/12 09:23:44;;;;;;;2.55;1.90;;;;;;;;;;3537839;40;20407;-67
2021/08/12 09:26:09;;;;;;;4.47;2.00;;;26.20;92.70;;;;;;3540597;40;20030;-67
2021/08/12 09:28:35;;;;;;;4.07;2.10;;;;;;;;;;3540905;40;20038;-66
2021/08/12 09:31:02;;;;;;;3.03;2.28;;;;;;;;;;3539965;40;20705;-66
2021/08/12 09:33:28;;;;;;;5.13;1.83;;;;;;;;;;3540651;40;20380;-66
2021/08/12 09:35:54;;;;;;;3.25;1.70;;;;;;;;;;3540526;40;20034;-67
2021/08/12 09:38:19;;;;;;;2.97;2.00;;;26.00;94.70;;;;;;3547482;40;20113;-67
2021/08/12 09:40:45;;;;;;;3.90;2.33;;;;;;;;;;3540664;40;20019;-67
2021/08/12 09:43:11;;;;;;;2.50;1.80;;;;;;;;;;3547642;40;20526;-67
2021/08/12 09:45:37;;;;;;;5.97;3.00;;;;;;;;;;3541076;40;20073;-66
2021/08/12 09:48:05;;;;;;;11.10;4.35;;;;;;;;;;3540828;40;20034;-67
2021/08/12 09:50:32;;;;;;;9.82;4.60;;;;;;;;;;3541301;40;20022;-66
2021/08/12 09:52:58;;;;;;;4.68;2.92;;;;;;;;;;3542065;40;20046;-67
2021/08/12 09:55:24;;;;;;;5.18;2.30;;;;;;;;;;3541058;40;20057;-67
2021/08/12 09:57:51;;;;;;;25.13;5.38;;;;;;;;;;3541568;40;20388;-67
2021/08/12 10:00:17;;;;;;;5.15;2.58;;;;;;;;;;3541043;40;20064;-67
2021/08/12 10:02:43;;;;;;;5.07;2.75;;;;;;;;;;3547640;40;20518;-68
2021/08/12 10:05:09;;;;;;;4.38;2.45;;;;;;;;;;3540854;40;20041;-67
2021/08/12 10:07:34;;;;;;;5.30;2.78;;;26.90;96.70;;;;;;3541170;40;20430;-67
2021/08/12 10:10:00;;;;;;;6.47;2.58;;;;;;;;;;3540874;40;20027;-67
2021/08/12 10:12:26;;;;;;;3.88;2.80;;;;;;;;;;3540526;40;20045;-66
2021/08/12 10:14:52;;;;;;;7.00;3.20;;;;;;;;;;3540800;40;20046;-67
2021/08/12 10:17:20;;;;;;;7.20;3.88;;;;;;;;;;3548101;40;20034;-67
2021/08/12 10:19:45;;;;;;;4.93;3.20;;;;;;;;;;3540822;40;20034;-67
2021/08/12 10:22:11;;;;;;;7.90;2.92;;;;;;;;;;3547476;40;20034;-67
2021/08/12 10:24:37;;;;;;;4.78;3.10;;;;;;;;;;3540968;40;20055;-67
2021/08/12 10:27:03;;;;;;;8.85;3.47;;;;;;;;;;3541793;40;20050;-67
2021/08/12 10:29:30;;;;;;;8.55;3.20;;;;;;;;;;3541219;40;20203;-67
2021/08/12 10:31:56;;;;;;;3.92;2.65;;;;;;;;;;3541560;40;20447;-67
2021/08/12 10:34:22;;;;;;;7.20;3.08;;;;;;;;;;3541768;40;20058;-67
2021/08/12 10:36:48;;;;;;;7.75;4.78;;;;;;;;;;3541750;40;20121;-67
2021/08/12 10:39:14;;;;;;;8.23;3.08;;;;;;;;;;3541567;40;20031;-67
2021/08/12 10:41:40;;;;;;;6.82;3.80;;;;;;;;;;3541210;40;20038;-67
2021/08/12 10:44:06;;;;;;;6.75;2.80;;;;;;;;;;3541908;40;20721;-67
2021/08/12 10:46:32;;;;;;;12.07;3.80;;;;;;;;;;3541722;40;20363;-67
2021/08/12 10:48:58;;;;;;;4.20;3.10;;;;;;;;;;3540700;40;20033;-67
2021/08/12 10:51:25;;;;;;;4.35;2.85;;;;;;;;;;3540553;40;20035;-68
2021/08/12 10:53:51;;;;;;;5.43;3.28;;;;;;;;;;3539932;40;20033;-67
2021/08/12 10:56:17;;;;;;;3.33;2.35;;;;;;;;;;3541086;40;20038;-67
2021/08/12 10:58:43;;;;;;;5.75;2.90;;;;;;;;;;3541157;40;20085;-67
2021/08/12 11:01:09;;;;;;;5.28;2.90;;;;;;;;;;3540547;40;20097;-67
2021/08/12 11:03:35;;;;;;;5.13;2.80;;;;;;;;;;3536895;40;20053;-67
2021/08/12 11:06:04;;;;;;;3.20;2.50;;;;;;;;;;3539460;40;20034;-67
2021/08/12 11:08:30;;;;;;;6.20;2.80;;;;;;;;;;3540014;40;20034;-67
2021/08/12 11:10:56;;;;;;;3.58;2.80;;;;;;;;;;3541172;40;20046;-67
2021/08/12 11:13:22;;;;;;;5.75;3.00;;;;;;;;;;3541359;40;20041;-67
2021/08/12 11:15:47;;;;;;;4.22;2.83;;;;;;;;;;3541666;40;20034;-67
2021/08/12 11:18:14;;;;;;;3.42;2.50;;;;;;;;;;3539143;40;20061;-67
2021/08/12 11:20:40;;;;;;;6.07;2.53;;;;;;;;;;3540102;40;20108;-67
2021/08/12 11:23:06;;;;;;;3.65;2.70;;;;;;;;;;3541077;40;20050;-67
2021/08/12 11:25:32;;;;;;;3.40;2.40;;;;;;;;;;3540606;40;20037;-67
2021/08/12 11:27:58;;;;;;;3.90;2.78;;;;;;;;;;3540595;40;20027;-67
2021/08/12 11:30:25;;;;;;;4.35;3.20;;;;;;;;;;3539707;40;20049;-67
2021/08/12 11:32:50;;;;;;;4.88;2.80;;;;;;;;;;3540458;40;20034;-67
2021/08/12 11:35:16;;;;;;;10.60;2.60;;;;;;;;;;3540763;40;20038;-67
2021/08/12 11:37:42;;;;;;;4.50;2.72;;;;;;;;;;3539182;40;20035;-67
2021/08/12 11:40:11;;;;;;;4.93;2.50;;;;;;;;;;3540274;40;20316;-67
2021/08/12 11:42:38;;;;;;;29.60;3.00;;;;;;;;;;3540482;40;20109;-67
2021/08/12 11:45:04;;;;;;;10.50;6.57;;;;;;;;;;3541815;40;20052;-68
2021/08/12 11:47:30;;;;;;;5.10;2.95;;;;;;;;;;3542126;40;20129;-67
2021/08/12 11:49:56;;;;;;;4.75;2.80;;;;;;;;;;3540799;40;20710;-67
2021/08/12 11:52:22;;;;;;;3.75;3.03;;;;;;;;;;3542824;40;20469;-68
2021/08/12 11:54:48;;;;;;;5.00;2.35;;;;;;;;;;3542314;40;20058;-67
2021/08/12 11:57:14;;;;;;;6.30;2.80;;;;;;;;;;3548536;40;20023;-68
2021/08/12 11:59:40;;;;;;;6.68;2.63;;;;;;;;;;3541814;40;20701;-68
2021/08/12 12:02:06;;;;;;;5.35;2.50;;;;;;;;;;3541595;40;20124;-68
2021/08/12 12:04:32;;;;;;;6.68;2.90;;;;;;;;;;3542554;40;20443;-68
2021/08/12 12:06:58;;;;;;;4.78;2.67;;;;;;;;;;3542209;40;20026;-67
2021/08/12 12:09:24;;;;;;;3.17;2.70;;;;;;;;;;3542255;40;20101;-67
2021/08/12 12:11:50;;;;;;;3.33;2.63;;;;;;;;;;3542229;40;20612;-68
2021/08/12 12:14:16;;;;;;;4.15;2.85;;;;;;;;;;3542321;40;20030;-67
2021/08/12 12:16:42;;;;;;;3.65;2.60;;;;;;;;;;3542337;40;20121;-68
2021/08/12 12:19:08;;;;;;;5.53;3.00;;;;;;;;;;3548706;40;20035;-67
2021/08/12 12:21:34;;;;;;;4.68;2.80;;;;;;;;;;3542302;40;20053;-67
2021/08/12 12:24:00;;;;;;;5.25;3.25;;;;;;;;;;3541586;40;20048;-68
2021/08/12 12:26:29;;;;;;;3.72;2.65;;;;;;;;;;3541185;40;20669;-67
2021/08/12 12:28:55;;;;;;;3.85;2.45;;;;;;;;;;3541911;40;20034;-67
2021/08/12 12:31:21;;;;;;;7.82;2.97;;;;;;;;;;3541766;40;20029;-68
2021/08/12 12:33:48;;;;;;;3.92;2.80;;;;;;;;;;3542077;40;20056;-67
2021/08/12 12:36:14;;;;;;;4.38;2.60;;;;;;;;;;3549043;40;20042;-67
2021/08/12 12:38:39;;;;;;;11.95;2.90;;;;;;;;;;3541621;40;20050;-67
2021/08/12 12:41:06;;;;;;;3.85;2.70;;;;;;;;;;3542070;40;20332;-67
2021/08/12 12:43:31;;;;;;;3.72;2.50;;;29.60;93.10;;;;;;3541869;40;20043;-68
2021/08/12 12:45:57;;;;;;;3.83;2.63;;;;;;;;;;3540365;40;20060;-67
2021/08/12 12:48:23;;;;;;;5.75;2.50;;;;;;;;;;3542360;40;20404;-67
2021/08/12 12:50:49;;;;;;;3.70;2.63;;;29.80;91.50;;;;;;3541598;40;20453;-67
2021/08/12 12:53:15;;;;;;;6.18;2.63;;;;;;;;;;3541084;40;20042;-68
2021/08/12 12:55:42;;;;;;;5.05;2.75;;;;;;;;;;3540958;40;20128;-68
2021/08/12 12:58:08;;;;;;;3.95;2.70;;;;;;;;;;3541634;40;20132;-67
2021/08/12 13:00:33;;;;;;;7.65;2.75;;;;;;;;;;3541449;40;20038;-68
2021/08/12 13:03:00;;;;;;;3.88;2.60;;;;;;;;;;3541961;40;20293;-68
2021/08/12 13:05:25;;;;;;;4.32;2.60;;;;;;;;;;3541370;40;20043;-67
2021/08/12 13:07:52;;;;;;;4.20;2.65;;;;;;;;;;3541648;40;20038;-67
2021/08/12 13:10:18;;;;;;;8.27;2.63;;;;;;;;;;3541097;40;20037;-67
2021/08/12 13:12:44;;;;;;;13.48;4.18;;;;;;;;;;3541108;40;20038;-68
2021/08/12 13:15:10;;;;;;;4.93;2.65;;;30.60;85.80;;;;;;3541903;40;20030;-67
2021/08/12 13:17:36;;;;;;;4.07;2.95;;;;;;;;;;3541707;40;20030;-67
2021/08/12 13:20:02;;;;;;;7.50;3.00;;;;;;;;;;3542051;40;20027;-68
2021/08/12 13:22:27;;;;;;;5.70;3.08;;;;;;;;;;3541895;40;20710;-67
2021/08/12 13:24:53;;;;;;;11.40;3.40;;;;;;;;;;3541748;40;20090;-68
2021/08/12 13:27:19;;;;;;;6.45;3.05;;;;;;;;;;3541942;40;20779;-67
2021/08/12 13:29:45;;;;;;;6.47;2.55;;;;;;;;;;3541452;40;20747;-67
2021/08/12 13:32:11;;;;;;;4.72;2.80;;;;;;;;;;3541880;40;20030;-67
2021/08/12 13:34:38;;;;;;;4.57;3.10;;;;;;;;;;3540939;40;20035;-67
2021/08/12 13:37:04;;;;;;;7.97;2.58;;;;;;;;;;3541508;40;20121;-67
2021/08/12 13:39:30;;;;;;;3.83;2.65;;;;;;;;;;3540355;40;20153;-67
2021/08/12 13:41:56;;;;;;;3.40;2.45;;;;;;;;;;3540958;40;20045;-67
2021/08/12 13:44:22;;;;;;;4.93;2.58;;;;;;;;;;3541760;40;20082;-67
2021/08/12 13:46:48;;;;;;;3.40;2.65;;;;;;;;;;3541896;40;20465;-67
2021/08/12 13:49:14;;;;;;;5.50;2.58;;;;;;;;;;3542056;40;20079;-67
2021/08/12 13:51:40;;;;;;;5.45;3.30;;;;;;;;;;3541579;40;20671;-68
2021/08/12 13:54:06;;;;;;;5.07;2.90;;;;;;;;;;3547883;40;20049;-67
2021/08/12 13:56:32;;;;;;;7.88;2.80;;;;;;;;;;3540271;40;20026;-67
2021/08/12 13:58:58;;;;;;;6.38;2.85;;;;;;;;;;3540728;40;20117;-68
2021/08/12 14:01:24;;;;;;;6.20;2.70;;;;;;;;;;3541202;40;20034;-67
2021/08/12 14:03:49;;;;;;;6.75;2.92;;;32.40;74.70;;;;;;3540594;40;20030;-67
2021/08/12 14:06:15;;;;;;;3.65;2.70;;;;;;;;;;3541269;40;20030;-67
2021/08/12 14:08:44;;;;;;;4.38;2.80;;;;;;;;;;3541760;40;20519;-67
2021/08/12 14:11:10;;;;;;;7.03;2.67;;;34.10;71.10;;;;;;3541612;40;20105;-68
2021/08/12 14:13:36;;;;;;;6.57;2.78;;;;;;;;;;3542333;40;20305;-68
2021/08/12 14:16:01;;;;;;;9.27;2.70;;;35.50;69.60;;;;;;3549052;40;20090;-68
2021/08/12 14:18:27;;;;;;;4.32;2.80;;;;;;;;;;3540409;40;20404;-67
2021/08/12 14:20:53;;;;;;;6.55;2.80;;;;;;;;;;3541722;40;20046;-67
2021/08/12 14:23:20;;;;;;;4.88;2.70;;;;;;;;;;3539026;40;20025;-67